Skip Navigation LinksHome page > Weather > Current weather Skip Navigation Links

Current Weather

Pittsburgh International, Pittsburgh, Penn.

For information only: do not use for flight planning or navigation.
Latest weather
Observation time Sunday, September 20, 2020 8:51 AM EDT
Local time Sunday, September 20, 2020 9:37 AM EDT
Flight conditions Visual Meteorological Conditions
Winds
Wind direction East (80°)
Wind speed 5 mph
Visibility 10 mi.
Sky condition
Ceiling unlimited
Sky clear
Temperature 46°F
Dewpoint 36°F
Altimeter 30.46 in.Hg
Derived measurements
Relative humidity 68%
Wind chill 44°F
Density altitude -169 ft.
Sea-level pressure 30.49 in.Hg
Remarks
Automated weather observing station with precipitation discriminator.
METAR KPIT 201251Z 08004KT 10SM CLR 08/02 A3046 RMK AO2 SLP326 T00780022

Settings

Location code

InnerDrive.Weather 4.0.6770.0 Release CLR 4.0.30319.42000
Copyright ©2018 Inner Drive Technology. All rights reserved. Portions Copyright ©1986-2018 David Braverman.

Find weather

Site navigation


Skip Navigation Links

Place info

Page info

PayPal - The safer, easier way to pay online!

Return home.

Copyright ©2020 Inner Drive Technology. Purveyors of fine, hand-crafted computer software. Page printed 2020-09-20T13:37:17 UTC.